createdAt,value
2018-11-06T00:00:03.235Z,146.17
2018-11-06T00:02:31.591Z,134.90
2018-11-06T00:05:05.388Z,131.00
2018-11-06T00:07:33.572Z,127.10
2018-11-06T00:10:01.828Z,126.73
2018-11-06T00:12:30.209Z,135.27
2018-11-06T00:15:00.110Z,134.67
2018-11-06T00:17:28.304Z,137.43
2018-11-06T00:19:56.731Z,149.50
2018-11-06T00:22:24.976Z,154.20
2018-11-06T00:24:53.364Z,145.73
2018-11-06T00:27:21.720Z,133.30
2018-11-06T00:29:50.165Z,134.00
2018-11-06T00:32:18.373Z,124.43
2018-11-06T00:34:46.757Z,131.03
2018-11-06T00:37:14.962Z,120.87
2018-11-06T00:39:43.281Z,116.83
2018-11-06T00:42:11.573Z,117.37
2018-11-06T00:44:39.765Z,139.00
2018-11-06T00:47:08.094Z,136.57
2018-11-06T00:49:36.271Z,138.53
2018-11-06T00:52:04.827Z,162.50
2018-11-06T00:54:33.152Z,163.13
2018-11-06T00:57:01.362Z,161.33
2018-11-06T00:59:29.669Z,136.17
2018-11-06T01:01:58.295Z,145.53
2018-11-06T01:04:26.484Z,146.53
2018-11-06T01:06:54.679Z,136.13
2018-11-06T01:09:23.090Z,158.40
2018-11-06T01:11:51.355Z,144.60
2018-11-06T01:14:19.635Z,145.13
2018-11-06T01:16:47.919Z,167.93
2018-11-06T01:19:16.130Z,157.53
2018-11-06T01:21:44.357Z,163.80
2018-11-06T01:24:12.742Z,143.13
2018-11-06T01:26:40.947Z,149.50
2018-11-06T01:29:09.155Z,145.53
2018-11-06T01:31:37.499Z,144.93
2018-11-06T01:34:05.814Z,160.70
2018-11-06T01:36:34.053Z,157.43
2018-11-06T01:39:02.585Z,163.80
2018-11-06T01:41:30.783Z,156.60
2018-11-06T01:43:58.983Z,157.40
2018-11-06T01:46:27.287Z,152.23
2018-11-06T01:48:55.462Z,137.53
2018-11-06T01:51:23.654Z,149.83
2018-11-06T01:53:51.946Z,148.10
2018-11-06T01:56:21.610Z,153.63
2018-11-06T01:58:49.773Z,151.03
2018-11-06T02:01:18.071Z,161.83
2018-11-06T02:03:46.293Z,157.93
2018-11-06T02:06:14.518Z,157.10
2018-11-06T02:08:43.115Z,142.40
2018-11-06T02:11:11.292Z,145.97
2018-11-06T02:13:39.584Z,149.73
2018-11-06T02:16:08.253Z,148.20
2018-11-06T02:18:36.435Z,150.80
2018-11-06T02:21:05.100Z,168.20
2018-11-06T02:23:33.387Z,143.93
2018-11-06T02:26:01.659Z,155.80
2018-11-06T02:28:29.884Z,163.20
2018-11-06T02:30:58.201Z,147.30
2018-11-06T02:33:26.520Z,137.93
2018-11-06T02:35:54.699Z,142.43
2018-11-06T02:38:22.887Z,146.30
2018-11-06T02:40:51.338Z,139.73
2018-11-06T02:43:19.507Z,137.83
2018-11-06T02:45:47.702Z,141.53
2018-11-06T02:48:15.984Z,132.67
2018-11-06T02:50:44.268Z,140.00
2018-11-06T02:53:12.472Z,127.37
2018-11-06T02:55:40.695Z,125.73
2018-11-06T02:58:08.990Z,128.90
2018-11-06T03:00:37.242Z,118.87
2018-11-06T03:03:05.608Z,126.20
2018-11-06T03:05:33.904Z,117.03
2018-11-06T03:08:02.216Z,105.13
2018-11-06T03:10:30.598Z,109.23
2018-11-06T03:12:58.824Z,106.27
2018-11-06T03:15:27.081Z,118.40
2018-11-06T03:17:55.410Z,109.47
2018-11-06T03:20:23.640Z,116.23
2018-11-06T03:22:51.815Z,104.23
2018-11-06T03:25:20.095Z,104.03
2018-11-06T03:27:48.301Z,104.43
2018-11-06T03:30:16.497Z,97.00
2018-11-06T03:32:45.063Z,93.27
2018-11-06T03:35:14.046Z,92.20
2018-11-06T03:37:42.348Z,88.53
2018-11-06T03:40:11.432Z,96.97
2018-11-06T03:42:40.447Z,102.03
2018-11-06T03:45:09.299Z,102.20
2018-11-06T03:47:37.588Z,106.20
2018-11-06T03:50:07.394Z,106.97
2018-11-06T03:52:35.695Z,105.70
2018-11-06T03:55:04.053Z,106.13
2018-11-06T03:57:32.236Z,108.30
2018-11-06T04:00:00.570Z,105.07
2018-11-06T04:02:28.779Z,103.17
2018-11-06T04:04:56.997Z,93.90
2018-11-06T04:07:25.519Z,101.80
2018-11-06T04:09:53.767Z,98.50
2018-11-06T04:12:21.939Z,96.33
2018-11-06T04:14:50.199Z,97.63
2018-11-06T04:17:18.505Z,91.00
2018-11-06T04:19:46.705Z,92.00
2018-11-06T04:22:14.888Z,88.83
2018-11-06T04:24:43.233Z,90.60
2018-11-06T04:27:11.527Z,94.07
2018-11-06T04:29:39.722Z,94.50
2018-11-06T04:32:08.023Z,82.67
2018-11-06T04:34:36.332Z,82.73
2018-11-06T04:37:04.523Z,79.30
2018-11-06T04:39:32.715Z,80.87
2018-11-06T04:42:01.010Z,78.63
2018-11-06T04:44:29.195Z,83.87
2018-11-06T04:46:57.399Z,77.87
2018-11-06T04:49:25.719Z,73.63
2018-11-06T04:51:53.904Z,70.00
2018-11-06T04:54:22.106Z,66.40
2018-11-06T04:56:50.386Z,69.60
2018-11-06T04:59:18.559Z,63.17
2018-11-06T05:01:46.730Z,63.83
2018-11-06T05:04:15.010Z,63.73
2018-11-06T05:06:43.199Z,63.80
2018-11-06T05:09:11.390Z,61.70
2018-11-06T05:11:39.706Z,61.33
2018-11-06T05:14:07.947Z,56.60
2018-11-06T05:16:36.228Z,67.57
2018-11-06T05:19:04.574Z,64.63
2018-11-06T05:21:32.949Z,64.83
2018-11-06T05:24:01.142Z,61.90
2018-11-06T05:26:29.320Z,62.07
2018-11-06T05:28:57.609Z,58.93
2018-11-06T05:31:26.484Z,61.13
2018-11-06T05:33:54.682Z,57.73
2018-11-06T05:36:22.956Z,64.00
2018-11-06T05:38:51.205Z,59.83
2018-11-06T05:41:19.316Z,68.00
2018-11-06T05:43:47.687Z,60.33
2018-11-06T05:46:15.832Z,70.60
2018-11-06T05:48:44.010Z,68.20
2018-11-06T05:51:12.292Z,69.37
2018-11-06T05:53:40.487Z,63.57
2018-11-06T05:56:08.679Z,62.77
2018-11-06T05:58:37.000Z,60.23
2018-11-06T06:01:05.596Z,64.53
2018-11-06T06:03:33.818Z,65.03
2018-11-06T06:06:02.172Z,76.63
2018-11-06T06:08:30.438Z,62.70
2018-11-06T06:10:58.763Z,70.47
2018-11-06T06:13:27.067Z,75.10
2018-11-06T06:15:55.382Z,62.00
2018-11-06T06:18:23.657Z,62.47
2018-11-06T06:20:51.858Z,70.87
2018-11-06T06:23:20.686Z,76.20
2018-11-06T06:25:48.940Z,70.17
2018-11-06T06:28:17.196Z,71.60
2018-11-06T06:30:45.511Z,72.73
2018-11-06T06:33:13.837Z,67.60
2018-11-06T06:35:42.032Z,67.13
2018-11-06T06:38:10.253Z,73.97
2018-11-06T06:40:38.744Z,66.07
2018-11-06T06:43:06.966Z,69.03
2018-11-06T06:45:35.229Z,65.83
2018-11-06T06:48:03.642Z,71.23
2018-11-06T06:50:31.915Z,66.93
2018-11-06T06:53:00.215Z,65.25
2018-11-06T06:55:28.606Z,77.17
2018-11-06T06:57:56.908Z,98.37
2018-11-06T07:00:25.156Z,81.93
2018-11-06T07:02:53.479Z,75.20
2018-11-06T07:05:22.874Z,84.43
2018-11-06T07:07:51.159Z,78.23
2018-11-06T07:10:20.885Z,76.70
2018-11-06T07:12:50.109Z,78.40
2018-11-06T07:15:19.587Z,62.40
2018-11-06T07:17:48.546Z,66.23
2018-11-06T07:20:18.292Z,60.83
2018-11-06T07:22:46.578Z,61.93
2018-11-06T07:25:15.262Z,66.40
2018-11-06T07:27:44.755Z,62.00
2018-11-06T07:30:15.448Z,60.17
2018-11-06T07:32:44.301Z,60.10
2018-11-06T07:35:13.635Z,57.83
2018-11-06T07:37:42.310Z,59.77
2018-11-06T07:40:12.109Z,61.17
2018-11-06T07:42:40.790Z,60.50
2018-11-06T07:45:12.773Z,62.63
2018-11-06T07:47:41.273Z,63.13
2018-11-06T07:50:10.479Z,65.13
2018-11-06T07:52:39.012Z,60.13
2018-11-06T07:55:10.277Z,63.83
2018-11-06T07:57:38.574Z,62.10
2018-11-06T08:00:12.386Z,66.70
2018-11-06T08:02:40.783Z,61.57
2018-11-06T08:05:09.152Z,64.67
2018-11-06T08:07:37.432Z,58.30
2018-11-06T08:10:06.808Z,55.63
2018-11-06T08:12:35.094Z,51.07
2018-11-06T08:15:03.618Z,51.73
2018-11-06T08:17:31.903Z,43.67
2018-11-06T08:20:00.259Z,44.33
2018-11-06T08:22:28.548Z,41.40
2018-11-06T08:24:56.790Z,41.30
2018-11-06T08:27:25.664Z,39.90
2018-11-06T08:29:53.919Z,36.03
2018-11-06T08:32:22.655Z,37.53
2018-11-06T08:34:50.626Z,36.40
2018-11-06T08:37:18.901Z,35.70
2018-11-06T08:39:47.328Z,34.33
2018-11-06T08:42:16.281Z,33.77
2018-11-06T08:44:44.565Z,33.23
2018-11-06T08:47:12.930Z,30.30
2018-11-06T08:49:41.311Z,31.47
2018-11-06T08:52:09.641Z,35.27
2018-11-06T08:54:37.968Z,31.70
2018-11-06T08:57:06.457Z,29.23
2018-11-06T08:59:34.797Z,29.47
2018-11-06T09:02:03.141Z,28.80
2018-11-06T09:04:31.530Z,28.27
2018-11-06T09:06:59.945Z,29.03
2018-11-06T09:09:28.257Z,27.63
2018-11-06T09:11:56.593Z,26.70
2018-11-06T09:14:25.165Z,26.10
2018-11-06T09:16:53.565Z,23.57
2018-11-06T09:19:21.963Z,21.90
2018-11-06T09:21:50.274Z,24.10
2018-11-06T09:24:18.582Z,21.90
2018-11-06T09:26:47.011Z,24.10
2018-11-06T09:29:15.312Z,22.00
2018-11-06T09:31:43.741Z,22.93
2018-11-06T09:34:12.164Z,20.33
2018-11-06T09:36:40.430Z,19.83
2018-11-06T09:39:10.607Z,19.53
2018-11-06T09:41:39.421Z,20.23
2018-11-06T09:44:07.745Z,20.67
2018-11-06T09:46:38.019Z,18.43
2018-11-06T09:49:06.906Z,16.87
2018-11-06T09:51:35.559Z,19.63
2018-11-06T09:54:04.411Z,17.30
2018-11-06T09:56:32.781Z,16.73
2018-11-06T09:59:01.165Z,16.53
2018-11-06T10:01:29.893Z,15.23
2018-11-06T10:03:58.188Z,15.17
2018-11-06T10:06:26.620Z,15.97
2018-11-06T10:08:54.938Z,15.90
2018-11-06T10:11:23.351Z,15.23
2018-11-06T10:13:51.779Z,14.97
2018-11-06T10:16:20.059Z,15.33
2018-11-06T10:18:49.441Z,14.20
2018-11-06T10:21:18.972Z,14.43
2018-11-06T10:23:47.337Z,13.47
2018-11-06T10:26:15.604Z,11.87
2018-11-06T10:28:43.940Z,11.97
2018-11-06T10:31:12.408Z,11.30
2018-11-06T10:33:40.860Z,9.50
2018-11-06T10:36:09.169Z,10.00
2018-11-06T10:38:37.617Z,10.60
2018-11-06T10:41:06.368Z,10.53
2018-11-06T10:43:34.703Z,9.40
2018-11-06T10:46:03.022Z,8.80
2018-11-06T10:48:32.294Z,8.57
2018-11-06T10:51:00.646Z,10.00
2018-11-06T10:53:29.029Z,9.00
2018-11-06T10:55:57.848Z,8.50
2018-11-06T10:58:26.093Z,7.80
2018-11-06T11:01:00.460Z,8.00
2018-11-06T11:03:38.049Z,7.50
2018-11-06T11:06:06.673Z,9.83
2018-11-06T11:08:34.985Z,7.83
2018-11-06T11:11:03.373Z,12.53
2018-11-06T11:13:31.740Z,7.60
2018-11-06T11:16:00.050Z,7.97
2018-11-06T11:18:28.486Z,8.40
2018-11-06T11:20:56.890Z,8.10
2018-11-06T11:23:25.339Z,8.87
2018-11-06T11:25:53.670Z,7.37
2018-11-06T11:28:22.092Z,6.83
2018-11-06T11:30:50.446Z,8.50
2018-11-06T11:33:18.852Z,7.40
2018-11-06T11:35:47.136Z,7.23
2018-11-06T11:38:15.486Z,6.10
2018-11-06T11:40:43.978Z,6.80
2018-11-06T11:43:12.363Z,6.97
2018-11-06T11:45:40.741Z,6.63
2018-11-06T11:48:09.016Z,5.80
2018-11-06T11:50:37.280Z,5.63
2018-11-06T11:53:05.665Z,5.50
2018-11-06T11:55:33.904Z,7.63
2018-11-06T11:58:02.204Z,6.30
2018-11-06T12:00:30.722Z,5.67
2018-11-06T12:02:58.930Z,5.40
2018-11-06T12:05:27.254Z,6.73
2018-11-06T12:07:55.629Z,5.07
2018-11-06T12:10:23.877Z,4.73
2018-11-06T12:12:52.173Z,4.77
2018-11-06T12:15:20.590Z,5.47
2018-11-06T12:17:48.873Z,4.57
2018-11-06T12:20:17.243Z,4.93
2018-11-06T12:22:45.625Z,4.00
2018-11-06T12:25:14.359Z,4.00
2018-11-06T12:27:42.540Z,4.50
2018-11-06T12:30:13.869Z,3.67
2018-11-06T12:32:42.245Z,5.20
2018-11-06T12:35:11.493Z,5.77
2018-11-06T12:37:40.211Z,8.23
2018-11-06T12:40:10.123Z,6.20
2018-11-06T12:42:38.892Z,4.53
2018-11-06T12:45:09.787Z,5.50
2018-11-06T12:47:38.383Z,9.07
2018-11-06T12:50:07.839Z,4.23
2018-11-06T12:52:36.204Z,5.17
2018-11-06T12:55:06.142Z,7.07
2018-11-06T12:57:34.444Z,5.13
2018-11-06T13:00:02.783Z,4.90
2018-11-06T13:02:31.202Z,7.80
2018-11-06T13:04:59.409Z,4.77
2018-11-06T13:07:27.705Z,5.00
2018-11-06T13:09:56.241Z,4.50
2018-11-06T13:12:24.438Z,6.60
2018-11-06T13:14:52.698Z,5.50
2018-11-06T13:17:21.100Z,5.27
2018-11-06T13:19:49.327Z,4.97
2018-11-06T13:22:17.717Z,7.93
2018-11-06T13:24:45.967Z,7.70
2018-11-06T13:27:14.286Z,8.17
2018-11-06T13:29:42.696Z,6.43
2018-11-06T13:32:11.003Z,7.03
2018-11-06T13:34:39.875Z,5.50
2018-11-06T13:37:08.272Z,6.63
2018-11-06T13:39:36.521Z,6.10
2018-11-06T13:42:05.337Z,4.20
2018-11-06T13:44:34.006Z,5.53
2018-11-06T13:47:01.869Z,6.50
2018-11-06T13:49:30.288Z,5.17
2018-11-06T13:51:58.759Z,7.97
2018-11-06T13:54:26.998Z,6.70
2018-11-06T13:56:55.248Z,6.97
2018-11-06T13:59:23.636Z,5.37
2018-11-06T14:01:51.877Z,7.73
2018-11-06T14:04:20.176Z,6.90
2018-11-06T14:06:48.448Z,6.60
2018-11-06T14:09:16.794Z,6.37
2018-11-06T14:11:45.063Z,8.23
2018-11-06T14:14:13.572Z,6.00
2018-11-06T14:16:42.438Z,7.13
2018-11-06T14:19:10.873Z,9.07
2018-11-06T14:21:39.246Z,7.33
2018-11-06T14:24:07.639Z,7.40
2018-11-06T14:26:35.934Z,8.03
2018-11-06T14:29:04.246Z,6.63
2018-11-06T14:31:32.590Z,8.00
2018-11-06T14:34:00.991Z,9.00
2018-11-06T14:36:29.312Z,10.03
2018-11-06T14:38:57.572Z,6.97
2018-11-06T14:41:26.197Z,10.07
2018-11-06T14:43:54.541Z,8.00
2018-11-06T14:46:22.864Z,10.17
2018-11-06T14:48:51.245Z,9.20
2018-11-06T14:51:19.484Z,9.00
2018-11-06T14:53:47.891Z,9.57
2018-11-06T14:56:17.914Z,10.17
2018-11-06T14:58:46.159Z,9.00
2018-11-06T15:01:14.653Z,12.07
2018-11-06T15:03:42.961Z,10.13
2018-11-06T15:06:11.248Z,11.70
2018-11-06T15:08:39.702Z,9.97
2018-11-06T15:11:08.126Z,9.77
2018-11-06T15:13:36.648Z,10.33
2018-11-06T15:16:05.284Z,12.10
2018-11-06T15:18:33.560Z,10.43
2018-11-06T15:21:02.060Z,11.70
2018-11-06T15:23:30.297Z,11.00
2018-11-06T15:25:58.528Z,9.07
2018-11-06T15:28:26.864Z,10.43
2018-11-06T15:30:55.360Z,10.73
2018-11-06T15:33:23.695Z,11.13
2018-11-06T15:35:52.027Z,11.50
2018-11-06T15:38:20.455Z,10.70
2018-11-06T15:40:48.837Z,12.30
2018-11-06T15:43:17.228Z,12.30
2018-11-06T15:45:45.630Z,12.47
2018-11-06T15:48:14.002Z,12.47
2018-11-06T15:50:42.328Z,15.67
2018-11-06T15:53:10.699Z,14.03
2018-11-06T15:55:39.001Z,14.47
2018-11-06T15:58:08.133Z,13.37
2018-11-06T16:00:36.752Z,16.93
2018-11-06T16:03:05.084Z,15.63
2018-11-06T16:05:33.318Z,13.70
2018-11-06T16:08:01.790Z,16.30
2018-11-06T16:10:30.148Z,19.10
2018-11-06T16:12:58.452Z,20.53
2018-11-06T16:15:27.171Z,17.40
2018-11-06T16:17:55.463Z,23.77
2018-11-06T16:20:23.750Z,25.33
2018-11-06T16:22:52.268Z,20.23
2018-11-06T16:25:21.370Z,17.30
2018-11-06T16:27:49.825Z,18.33
2018-11-06T16:30:19.364Z,17.87
2018-11-06T16:32:47.891Z,19.07
2018-11-06T16:35:17.727Z,20.13
2018-11-06T16:37:46.511Z,17.33
2018-11-06T16:40:15.280Z,18.10
2018-11-06T16:42:44.377Z,19.30
2018-11-06T16:45:16.385Z,25.57
2018-11-06T16:47:45.780Z,19.63
2018-11-06T16:50:15.247Z,20.00
2018-11-06T16:52:43.778Z,20.50
2018-11-06T16:55:12.460Z,19.93
2018-11-06T16:57:41.846Z,21.40
2018-11-06T17:00:14.014Z,19.67
2018-11-06T17:02:42.737Z,20.33
2018-11-06T17:05:12.324Z,21.97
2018-11-06T17:07:42.230Z,21.77
2018-11-06T17:10:11.988Z,21.47
2018-11-06T17:12:40.645Z,20.50
2018-11-06T17:15:17.073Z,22.77
2018-11-06T17:17:46.251Z,27.23
2018-11-06T17:20:15.090Z,22.77
2018-11-06T17:22:43.399Z,22.50
2018-11-06T17:25:13.868Z,26.33
2018-11-06T17:27:42.191Z,24.80
2018-11-06T17:30:13.104Z,24.37
2018-11-06T17:32:41.865Z,24.70
2018-11-06T17:35:12.915Z,26.07
2018-11-06T17:37:41.649Z,21.33
2018-11-06T17:40:12.282Z,24.90
2018-11-06T17:42:41.178Z,23.80
2018-11-06T17:45:15.263Z,22.37
2018-11-06T17:47:43.751Z,26.23
2018-11-06T17:50:13.565Z,22.43
2018-11-06T17:52:42.257Z,25.50
2018-11-06T17:55:12.243Z,24.67
2018-11-06T17:57:40.897Z,26.83
2018-11-06T18:00:13.237Z,23.20
2018-11-06T18:02:44.217Z,23.67
2018-11-06T18:05:13.640Z,26.30
2018-11-06T18:07:42.529Z,24.20
2018-11-06T18:10:12.743Z,27.70
2018-11-06T18:12:41.081Z,27.90
2018-11-06T18:15:09.614Z,30.17
2018-11-06T18:17:38.738Z,23.43
2018-11-06T18:20:08.415Z,26.90
2018-11-06T18:22:37.110Z,23.20
2018-11-06T18:25:06.217Z,25.20
2018-11-06T18:27:34.538Z,33.70
2018-11-06T18:30:03.040Z,26.47
2018-11-06T18:32:31.345Z,23.90
2018-11-06T18:34:59.697Z,30.70
2018-11-06T18:37:28.129Z,28.97
2018-11-06T18:39:57.043Z,28.20
2018-11-06T18:42:25.335Z,31.10
2018-11-06T18:44:53.836Z,25.97
2018-11-06T18:47:22.138Z,26.60
2018-11-06T18:49:51.690Z,25.97
2018-11-06T18:52:20.173Z,23.93
2018-11-06T18:54:48.518Z,24.37
2018-11-06T18:57:16.879Z,32.57
2018-11-06T18:59:45.315Z,33.23
2018-11-06T19:02:13.731Z,31.60
2018-11-06T19:04:42.696Z,27.30
2018-11-06T19:07:11.119Z,29.53
2018-11-06T19:09:39.423Z,29.50
2018-11-06T19:12:07.773Z,27.73
2018-11-06T19:14:36.242Z,25.70
2018-11-06T19:17:04.945Z,24.97
2018-11-06T19:19:33.484Z,28.83
2018-11-06T19:22:01.831Z,26.33
2018-11-06T19:24:30.258Z,26.53
2018-11-06T19:26:58.602Z,30.90
2018-11-06T19:29:27.546Z,28.17
2018-11-06T19:31:55.920Z,26.00
2018-11-06T19:34:24.354Z,27.40
2018-11-06T19:36:53.270Z,26.17
2018-11-06T19:39:21.723Z,28.00
2018-11-06T19:41:50.125Z,29.90
2018-11-06T19:44:18.494Z,29.93
2018-11-06T19:46:46.839Z,27.90
2018-11-06T19:49:15.378Z,27.73
2018-11-06T19:51:44.028Z,29.20
2018-11-06T19:54:12.307Z,25.80
2018-11-06T19:56:40.716Z,30.53
2018-11-06T19:59:09.131Z,25.83
2018-11-06T20:01:37.560Z,25.37
2018-11-06T20:04:06.181Z,22.87
2018-11-06T20:06:34.899Z,29.33
2018-11-06T20:09:05.170Z,26.07
2018-11-06T20:11:33.576Z,26.13
2018-11-06T20:14:01.988Z,25.00
2018-11-06T20:16:30.376Z,23.70
2018-11-06T20:18:58.805Z,25.57
2018-11-06T20:21:27.273Z,23.63
2018-11-06T20:23:55.663Z,22.60
2018-11-06T20:26:24.044Z,22.20
2018-11-06T20:28:52.440Z,27.87
2018-11-06T20:31:20.712Z,24.53
2018-11-06T20:33:49.124Z,21.53
2018-11-06T20:36:18.029Z,24.93
2018-11-06T20:38:46.503Z,20.90
2018-11-06T20:41:14.773Z,22.80
2018-11-06T20:43:43.271Z,23.67
2018-11-06T20:46:11.645Z,21.63
2018-11-06T20:48:40.018Z,21.77
2018-11-06T20:51:08.539Z,23.33
2018-11-06T20:53:36.970Z,21.27
2018-11-06T20:56:06.125Z,23.33
2018-11-06T20:58:34.699Z,22.20
2018-11-06T21:01:03.281Z,22.00
2018-11-06T21:03:31.753Z,23.20
2018-11-06T21:06:00.807Z,20.20
2018-11-06T21:08:29.094Z,21.77
2018-11-06T21:10:57.927Z,20.10
2018-11-06T21:13:27.478Z,19.23
2018-11-06T21:15:55.750Z,20.37
2018-11-06T21:18:24.007Z,23.73
2018-11-06T21:20:52.409Z,23.40
2018-11-06T21:23:20.998Z,25.53
2018-11-06T21:25:49.978Z,25.63
2018-11-06T21:28:18.209Z,23.77
2018-11-06T21:30:46.597Z,23.20
2018-11-06T21:33:14.881Z,24.03
2018-11-06T21:35:43.278Z,24.13
2018-11-06T21:38:11.663Z,25.23
2018-11-06T21:40:39.885Z,21.30
2018-11-06T21:43:08.283Z,25.27
2018-11-06T21:45:36.618Z,24.07
2018-11-06T21:48:05.105Z,22.13
2018-11-06T21:50:33.711Z,24.60
2018-11-06T21:53:02.062Z,23.20
2018-11-06T21:55:30.315Z,23.60
2018-11-06T21:57:58.653Z,20.77
2018-11-06T22:00:27.019Z,22.30
2018-11-06T22:02:55.257Z,19.20
2018-11-06T22:05:23.822Z,18.97
2018-11-06T22:07:52.050Z,18.63
2018-11-06T22:10:20.977Z,20.43
2018-11-06T22:12:49.824Z,17.77
2018-11-06T22:15:18.874Z,18.33
2018-11-06T22:17:47.166Z,18.80
2018-11-06T22:20:16.987Z,19.37
2018-11-06T22:22:45.761Z,19.00
2018-11-06T22:25:14.119Z,19.50
2018-11-06T22:27:42.620Z,19.07
2018-11-06T22:30:12.454Z,18.87
2018-11-06T22:32:41.654Z,21.57
2018-11-06T22:35:11.643Z,18.93
2018-11-06T22:37:39.980Z,21.63
2018-11-06T22:40:09.462Z,20.80
2018-11-06T22:42:38.020Z,21.73
2018-11-06T22:45:09.008Z,21.27
2018-11-06T22:47:37.347Z,21.80
2018-11-06T22:50:07.867Z,20.63
2018-11-06T22:52:36.253Z,19.13
2018-11-06T22:55:04.665Z,19.03
2018-11-06T22:57:32.912Z,20.20
2018-11-06T23:00:01.275Z,17.23
2018-11-06T23:02:29.661Z,20.20
2018-11-06T23:04:57.890Z,17.23
2018-11-06T23:07:31.902Z,15.53
2018-11-06T23:10:00.370Z,15.00
2018-11-06T23:12:28.625Z,16.13
2018-11-06T23:14:56.888Z,15.77
2018-11-06T23:17:25.231Z,15.20
2018-11-06T23:19:53.456Z,13.97
2018-11-06T23:22:21.673Z,13.17
2018-11-06T23:24:50.122Z,14.33
2018-11-06T23:27:18.342Z,12.73
2018-11-06T23:29:46.681Z,12.50
2018-11-06T23:32:14.957Z,13.53
2018-11-06T23:34:43.193Z,15.00
2018-11-06T23:37:11.615Z,14.17
2018-11-06T23:39:39.887Z,12.77
2018-11-06T23:42:08.088Z,12.70
2018-11-06T23:44:36.498Z,12.53
2018-11-06T23:47:04.926Z,11.40
2018-11-06T23:49:33.290Z,11.67
2018-11-06T23:52:01.639Z,11.77
2018-11-06T23:54:29.979Z,14.47
2018-11-06T23:56:58.399Z,16.40
2018-11-06T23:59:26.772Z,10.73
